createdAt,value
2022-08-29T00:00:26.574Z,13.33
2022-08-29T00:03:00.345Z,13.09
2022-08-29T00:05:31.637Z,13.57
2022-08-29T00:08:02.846Z,13.58
2022-08-29T00:10:32.863Z,13.40
2022-08-29T00:13:01.644Z,13.55
2022-08-29T00:15:30.432Z,13.54
2022-08-29T00:17:59.149Z,13.53
2022-08-29T00:20:34.229Z,13.52
2022-08-29T00:23:06.352Z,13.49
2022-08-29T00:25:35.234Z,13.47
2022-08-29T00:28:04.247Z,13.46
2022-08-29T00:30:33.882Z,13.45
2022-08-29T00:33:02.402Z,13.22
2022-08-29T00:35:33.813Z,13.36
2022-08-29T00:38:05.817Z,13.29
2022-08-29T00:40:37.996Z,13.23
2022-08-29T00:43:08.369Z,13.23
2022-08-29T00:45:37.855Z,13.17
2022-08-29T00:48:11.656Z,13.14
2022-08-29T00:50:41.357Z,13.02
2022-08-29T00:53:17.128Z,12.72
2022-08-29T00:55:50.484Z,13.04
2022-08-29T00:58:26.679Z,13.01
2022-08-29T01:00:55.723Z,12.97
2022-08-29T01:03:24.339Z,12.78
2022-08-29T01:05:53.204Z,12.42
2022-08-29T01:08:23.204Z,12.93
2022-08-29T01:11:10.441Z,12.92
2022-08-29T01:13:42.485Z,12.87
2022-08-29T01:16:13.560Z,12.88
2022-08-29T01:18:45.525Z,12.86
2022-08-29T01:21:22.470Z,12.83
2022-08-29T01:24:00.605Z,12.69
2022-08-29T01:26:32.128Z,12.75
2022-08-29T01:29:00.692Z,12.75
2022-08-29T01:31:55.935Z,12.73
2022-08-29T01:34:26.170Z,12.36
2022-08-29T01:36:56.636Z,12.67
2022-08-29T01:39:27.838Z,12.65
2022-08-29T01:42:01.541Z,12.51
2022-08-29T01:44:29.704Z,12.51
2022-08-29T01:47:02.760Z,12.54
2022-08-29T01:49:32.825Z,12.39
2022-08-29T01:52:02.063Z,12.42
2022-08-29T01:54:31.629Z,12.25
2022-08-29T01:57:02.264Z,12.06
2022-08-29T01:59:33.349Z,12.43
2022-08-29T02:02:06.186Z,12.41
2022-08-29T02:04:35.282Z,11.77
2022-08-29T02:07:03.963Z,12.41
2022-08-29T02:09:32.902Z,12.38
2022-08-29T02:12:07.911Z,12.33
2022-08-29T02:14:37.548Z,12.27
2022-08-29T02:17:07.492Z,12.26
2022-08-29T02:19:37.498Z,12.26
2022-08-29T02:22:07.129Z,12.22
2022-08-29T02:24:35.709Z,12.18
2022-08-29T02:27:06.545Z,12.18
2022-08-29T02:29:38.678Z,12.03
2022-08-29T02:32:08.480Z,12.09
2022-08-29T02:34:37.477Z,12.09
2022-08-29T02:37:06.649Z,12.05
2022-08-29T02:39:35.291Z,12.03
2022-08-29T02:42:06.044Z,11.32
2022-08-29T02:44:34.579Z,11.95
2022-08-29T02:47:03.109Z,11.99
2022-08-29T02:49:32.289Z,12.00
2022-08-29T02:52:00.973Z,11.84
2022-08-29T02:54:29.450Z,11.95
2022-08-29T02:56:57.975Z,11.92
2022-08-29T02:59:28.089Z,11.80
2022-08-29T03:01:56.581Z,11.67
2022-08-29T03:04:25.116Z,11.90
2022-08-29T03:06:53.734Z,11.78
2022-08-29T03:09:22.291Z,11.90
2022-08-29T03:11:53.113Z,11.88
2022-08-29T03:14:21.605Z,11.66
2022-08-29T03:16:51.638Z,11.43
2022-08-29T03:19:20.452Z,11.82
2022-08-29T03:21:49.297Z,11.80
2022-08-29T03:24:17.832Z,11.79
2022-08-29T03:26:56.854Z,11.77
2022-08-29T03:29:27.616Z,11.63
2022-08-29T03:31:58.740Z,11.72
2022-08-29T03:34:27.756Z,11.66
2022-08-29T03:36:56.545Z,11.65
2022-08-29T03:39:25.384Z,11.07
2022-08-29T03:41:54.283Z,11.63
2022-08-29T03:44:23.018Z,11.64
2022-08-29T03:46:52.026Z,11.64
2022-08-29T03:49:22.335Z,11.64
2022-08-29T03:51:51.362Z,11.62
2022-08-29T03:54:19.907Z,11.59
2022-08-29T03:56:48.901Z,11.59
2022-08-29T03:59:18.697Z,11.44
2022-08-29T04:01:48.668Z,11.55
2022-08-29T04:04:38.770Z,11.55
2022-08-29T04:07:10.090Z,11.52
2022-08-29T04:09:39.288Z,11.53
2022-08-29T04:12:08.409Z,11.52
2022-08-29T04:14:37.517Z,11.53
2022-08-29T04:17:06.402Z,11.40
2022-08-29T04:19:35.793Z,11.53
2022-08-29T04:22:04.567Z,11.50
2022-08-29T04:24:35.888Z,11.44
2022-08-29T04:27:04.453Z,11.40
2022-08-29T04:29:35.589Z,11.35
2022-08-29T04:32:05.243Z,11.31
2022-08-29T10:25:00.629Z,18.03
2022-08-29T10:27:43.527Z,18.12
2022-08-29T10:30:16.162Z,18.22
2022-08-29T10:33:09.761Z,18.31
2022-08-29T10:35:42.127Z,18.38
2022-08-29T10:41:28.987Z,18.51
2022-08-29T10:44:36.285Z,18.40
2022-08-29T10:47:16.760Z,18.57
2022-08-29T10:50:16.925Z,18.71
2022-08-29T10:53:07.629Z,18.76
2022-08-29T10:55:49.696Z,18.17
2022-08-29T10:58:33.967Z,18.93
2022-08-29T11:01:10.183Z,18.97
2022-08-29T11:03:45.500Z,18.77
2022-08-29T11:06:22.761Z,19.03
2022-08-29T11:09:01.597Z,18.61
2022-08-29T11:11:34.900Z,19.13
2022-08-29T11:14:10.492Z,18.83
2022-08-29T11:16:47.628Z,19.13
2022-08-29T11:19:22.824Z,19.23
2022-08-29T11:21:56.950Z,19.22
2022-08-29T11:24:34.334Z,19.28
2022-08-29T11:27:19.244Z,19.28
2022-08-29T11:29:56.350Z,19.36
2022-08-29T11:32:36.169Z,19.40
2022-08-29T11:35:13.453Z,19.33
2022-08-29T11:38:15.648Z,19.30
2022-08-29T11:43:49.752Z,19.39
2022-08-29T11:46:37.688Z,19.45
2022-08-29T11:49:27.767Z,19.50
2022-08-29T11:52:00.322Z,19.59
2022-08-29T11:54:50.579Z,19.72
2022-08-29T11:57:48.703Z,19.79
2022-08-29T12:00:50.615Z,19.92
2022-08-29T12:03:47.181Z,19.95
2022-08-29T12:06:41.993Z,20.01
2022-08-29T12:09:25.865Z,19.92
2022-08-29T12:12:14.169Z,19.86
2022-08-29T12:14:44.947Z,19.86
2022-08-29T12:18:01.931Z,19.97
2022-08-29T12:20:42.857Z,19.95
2022-08-29T12:23:22.938Z,19.92
2022-08-29T12:26:15.925Z,19.98
2022-08-29T12:28:50.279Z,19.98
2022-08-29T12:31:28.797Z,20.27
2022-08-29T12:34:23.301Z,20.25
2022-08-29T12:37:12.751Z,20.40
2022-08-29T12:39:57.764Z,20.27
2022-08-29T12:42:39.519Z,20.48
2022-08-29T12:45:13.641Z,20.61
2022-08-29T12:47:46.983Z,20.71
2022-08-29T12:50:20.862Z,20.34
2022-08-29T12:53:02.257Z,21.04
2022-08-29T12:55:38.679Z,20.83
2022-08-29T12:58:09.529Z,21.02
2022-08-29T13:00:39.143Z,21.03
2022-08-29T13:03:15.420Z,20.98
2022-08-29T13:05:46.305Z,21.01
2022-08-29T13:08:18.107Z,21.01
2022-08-29T13:10:56.631Z,20.58
2022-08-29T13:13:28.040Z,21.13
2022-08-29T13:16:01.860Z,20.54
2022-08-29T13:18:33.753Z,20.65
2022-08-29T13:21:13.923Z,21.29
2022-08-29T13:23:46.195Z,21.22
2022-08-29T13:26:24.507Z,21.30
2022-08-29T13:28:56.103Z,21.22
2022-08-29T13:31:28.307Z,21.32
2022-08-29T13:34:21.208Z,21.32
2022-08-29T13:37:16.433Z,21.29
2022-08-29T13:39:49.756Z,21.28
2022-08-29T13:42:32.797Z,21.18
2022-08-29T13:45:21.810Z,21.16
2022-08-29T13:48:04.516Z,20.85
2022-08-29T13:50:33.761Z,21.26
2022-08-29T13:53:04.183Z,20.90
2022-08-29T13:55:33.171Z,21.24
2022-08-29T13:58:02.247Z,21.36
2022-08-29T14:00:35.058Z,21.36
2022-08-29T14:03:05.781Z,21.24
2022-08-29T14:05:35.444Z,21.21
2022-08-29T14:08:06.912Z,21.25
2022-08-29T14:10:35.732Z,20.28
2022-08-29T14:13:06.092Z,21.24
2022-08-29T14:15:34.741Z,21.37
2022-08-29T14:18:05.067Z,21.36
2022-08-29T14:20:34.078Z,21.29
2022-08-29T14:23:03.046Z,21.38
2022-08-29T14:25:33.327Z,21.30
2022-08-29T14:28:02.400Z,21.21
2022-08-29T14:30:31.715Z,21.30
2022-08-29T14:33:00.409Z,21.35
2022-08-29T14:35:31.994Z,21.30
2022-08-29T14:38:02.214Z,20.61
2022-08-29T14:40:33.789Z,20.02
2022-08-29T14:43:04.711Z,21.27
2022-08-29T14:45:33.507Z,20.76
2022-08-29T14:48:02.443Z,21.23
2022-08-29T14:50:31.179Z,21.38
2022-08-29T14:53:00.471Z,21.00
2022-08-29T14:55:29.155Z,21.46
2022-08-29T14:57:59.186Z,21.58
2022-08-29T15:00:30.753Z,21.62
2022-08-29T15:03:00.441Z,21.04
2022-08-29T15:05:30.090Z,21.25
2022-08-29T15:08:01.805Z,21.49
2022-08-29T15:10:34.940Z,20.92
2022-08-29T15:13:07.732Z,21.04
2022-08-29T15:15:37.177Z,21.35
2022-08-29T15:18:06.863Z,21.26
2022-08-29T15:20:38.720Z,21.27
2022-08-29T15:23:09.300Z,21.25
2022-08-29T15:25:39.779Z,20.96
2022-08-29T15:28:15.702Z,20.97
2022-08-29T15:30:44.438Z,20.87
2022-08-29T15:33:13.385Z,21.00
2022-08-29T15:35:42.752Z,20.95
2022-08-29T15:38:12.148Z,20.89
2022-08-29T15:40:41.003Z,20.85
2022-08-29T15:43:09.732Z,20.77
2022-08-29T15:45:40.171Z,20.41
2022-08-29T15:48:11.877Z,20.66
2022-08-29T15:50:43.372Z,20.37
2022-08-29T15:53:12.804Z,20.61
2022-08-29T15:55:44.316Z,20.57
2022-08-29T15:58:14.268Z,20.48
2022-08-29T16:00:45.476Z,20.41
2022-08-29T16:03:14.888Z,19.59
2022-08-29T16:05:44.155Z,20.22
2022-08-29T16:08:17.429Z,20.17
2022-08-29T16:10:46.799Z,19.15
2022-08-29T16:13:16.326Z,20.18
2022-08-29T16:15:53.087Z,20.12
2022-08-29T16:18:22.315Z,19.21
2022-08-29T16:21:02.990Z,19.95
2022-08-29T16:23:32.859Z,20.06
2022-08-29T16:26:01.558Z,19.86
2022-08-29T16:28:31.771Z,19.95
2022-08-29T16:31:02.842Z,19.92
2022-08-29T16:33:31.761Z,19.88
2022-08-29T16:36:01.047Z,19.62
2022-08-29T16:38:32.297Z,19.54
2022-08-29T16:41:08.859Z,19.59
2022-08-29T16:43:43.728Z,19.71
2022-08-29T16:46:17.875Z,19.66
2022-08-29T16:48:48.175Z,19.15
2022-08-29T16:51:19.137Z,18.52
2022-08-29T16:53:48.966Z,19.30
2022-08-29T16:56:18.952Z,19.52
2022-08-29T16:59:01.916Z,19.49
2022-08-29T17:01:35.052Z,19.40
2022-08-29T17:04:06.875Z,19.32
2022-08-29T17:06:39.571Z,19.27
2022-08-29T17:09:11.184Z,19.06
2022-08-29T17:11:39.287Z,19.15
2022-08-29T17:14:07.771Z,19.13
2022-08-29T17:16:39.635Z,18.80
2022-08-29T17:19:10.588Z,18.30
2022-08-29T17:21:40.009Z,18.97
2022-08-29T17:24:11.638Z,18.94
2022-08-29T17:26:42.727Z,18.88
2022-08-29T17:29:12.630Z,18.84
2022-08-29T17:31:43.943Z,18.79
2022-08-29T17:34:13.541Z,18.63
2022-08-29T17:36:44.455Z,18.70
2022-08-29T17:39:14.364Z,18.27
2022-08-29T17:41:44.984Z,18.59
2022-08-29T17:44:15.207Z,18.55
2022-08-29T17:46:45.681Z,18.53
2022-08-29T17:49:15.777Z,17.56
2022-08-29T17:51:53.869Z,18.17
2022-08-29T17:54:24.043Z,18.14
2022-08-29T17:56:54.744Z,18.16
2022-08-29T17:59:28.928Z,18.21
2022-08-29T18:02:01.141Z,18.36
2022-08-29T18:04:30.420Z,18.30
2022-08-29T18:10:17.850Z,17.97
2022-08-29T18:12:50.855Z,18.12
2022-08-29T18:15:21.375Z,17.92
2022-08-29T18:17:57.973Z,17.55
2022-08-29T18:23:18.934Z,16.29
2022-08-29T18:25:48.374Z,17.15
2022-08-29T18:28:18.001Z,16.32
2022-08-29T18:30:47.109Z,17.69
2022-08-29T18:33:17.547Z,17.64
2022-08-29T18:35:46.518Z,17.44
2022-08-29T18:38:16.805Z,16.29
2022-08-29T18:40:45.826Z,17.42
2022-08-29T18:43:16.975Z,17.37
2022-08-29T18:45:45.876Z,17.31
2022-08-29T18:48:16.665Z,17.24
2022-08-29T18:50:48.767Z,17.16
2022-08-29T18:53:20.782Z,16.59
2022-08-29T18:55:53.163Z,16.99
2022-08-29T18:58:23.894Z,16.96
2022-08-29T19:00:52.768Z,16.78
2022-08-29T19:03:22.882Z,16.54
2022-08-29T19:05:55.252Z,16.82
2022-08-29T19:08:28.311Z,16.77
2022-08-29T19:11:02.227Z,16.72
2022-08-29T19:13:33.309Z,16.68
2022-08-29T19:16:03.629Z,16.63
2022-08-29T19:18:36.108Z,16.56
2022-08-29T19:21:08.010Z,16.18
2022-08-29T19:23:39.225Z,16.46
2022-08-29T19:26:13.964Z,16.09
2022-08-29T19:28:43.253Z,14.95
2022-08-29T19:31:14.455Z,16.18
2022-08-29T19:33:45.910Z,16.04
2022-08-29T19:36:17.586Z,16.12
2022-08-29T19:38:47.868Z,15.71
2022-08-29T19:41:17.476Z,16.03
2022-08-29T19:43:48.134Z,15.99
2022-08-29T19:46:21.302Z,15.85
2022-08-29T19:48:52.417Z,15.57
2022-08-29T19:51:26.274Z,15.87
2022-08-29T19:53:57.639Z,15.72
2022-08-29T19:56:28.573Z,15.74
2022-08-29T19:59:00.441Z,15.71
2022-08-29T20:01:31.713Z,15.68
2022-08-29T20:04:03.187Z,15.67
2022-08-29T20:06:38.039Z,15.64
2022-08-29T20:09:08.630Z,15.16
2022-08-29T20:11:43.792Z,15.38
2022-08-29T20:14:14.645Z,15.47
2022-08-29T20:16:47.271Z,15.51
2022-08-29T20:19:20.329Z,14.97
2022-08-29T20:21:53.153Z,15.41
2022-08-29T20:24:24.045Z,14.89
2022-08-29T20:26:54.119Z,15.02
2022-08-29T20:29:27.141Z,14.91
2022-08-29T20:31:59.973Z,13.54
2022-08-29T20:34:30.587Z,15.29
2022-08-29T20:37:09.913Z,13.49
2022-08-29T20:39:42.496Z,15.12
2022-08-29T20:42:13.506Z,15.11
2022-08-29T20:44:45.395Z,14.96
2022-08-29T20:47:18.576Z,15.15
2022-08-29T20:49:49.983Z,15.08
2022-08-29T20:52:47.135Z,15.03
2022-08-29T20:55:17.546Z,14.96
2022-08-29T20:57:47.900Z,14.92
2022-08-29T21:00:20.170Z,14.30
2022-08-29T21:03:08.440Z,14.86
2022-08-29T21:05:46.383Z,14.64
2022-08-29T21:08:21.485Z,14.81
2022-08-29T21:10:52.228Z,14.41
2022-08-29T21:13:22.087Z,14.77
2022-08-29T21:15:51.483Z,14.51
2022-08-29T21:18:22.594Z,14.50
2022-08-29T21:20:54.000Z,14.69
2022-08-29T21:23:26.266Z,14.65
2022-08-29T21:25:57.202Z,14.60
2022-08-29T21:28:28.076Z,13.91
2022-08-29T21:30:57.570Z,13.99
2022-08-29T21:33:26.586Z,13.96
2022-08-29T21:35:58.132Z,13.44
2022-08-29T21:38:28.865Z,13.72
2022-08-29T21:40:58.831Z,13.84
2022-08-29T21:43:28.545Z,13.29
2022-08-29T21:45:58.111Z,13.68
2022-08-29T21:48:26.908Z,14.36
2022-08-29T21:50:57.001Z,13.57
2022-08-29T21:53:25.950Z,14.32
2022-08-29T21:55:56.133Z,14.27
2022-08-29T21:58:25.320Z,14.23
2022-08-29T22:00:54.264Z,14.06
2022-08-29T22:03:24.369Z,14.05
2022-08-29T22:05:54.334Z,13.89
2022-08-29T22:08:24.003Z,13.75
2022-08-29T22:10:53.739Z,14.10
2022-08-29T22:13:24.201Z,13.92
2022-08-29T22:16:10.106Z,14.01
2022-08-29T22:18:39.682Z,13.96
2022-08-29T22:21:11.158Z,13.72
2022-08-29T22:23:42.096Z,13.81
2022-08-29T22:26:11.256Z,13.80
2022-08-29T22:28:42.240Z,13.90
2022-08-29T22:31:11.982Z,13.65
2022-08-29T22:33:42.555Z,13.86
2022-08-29T22:36:14.376Z,13.78
2022-08-29T22:38:44.563Z,13.51
2022-08-29T22:41:16.025Z,13.79
2022-08-29T22:43:48.977Z,12.74
2022-08-29T22:46:22.168Z,13.20
2022-08-29T22:48:52.386Z,13.71
2022-08-29T22:51:24.990Z,13.23
2022-08-29T22:54:08.680Z,13.41
2022-08-29T22:56:39.956Z,13.57
2022-08-29T22:59:14.219Z,13.55
2022-08-29T23:01:45.731Z,13.30
2022-08-29T23:04:15.640Z,13.45
2022-08-29T23:06:46.004Z,13.44
2022-08-29T23:09:14.594Z,13.34
2022-08-29T23:11:44.980Z,13.41
2022-08-29T23:14:16.567Z,13.35
2022-08-29T23:16:51.171Z,13.33
2022-08-29T23:19:19.940Z,13.15
2022-08-29T23:21:49.216Z,12.63
2022-08-29T23:24:21.150Z,13.20
2022-08-29T23:26:50.067Z,12.65
2022-08-29T23:29:21.270Z,13.20
2022-08-29T23:31:50.853Z,13.16
2022-08-29T23:34:19.574Z,13.14
2022-08-29T23:36:48.977Z,12.77
2022-08-29T23:39:17.741Z,11.83
2022-08-29T23:41:46.460Z,13.09
2022-08-29T23:44:16.107Z,12.02
2022-08-29T23:46:47.180Z,12.45
2022-08-29T23:49:16.309Z,13.01
2022-08-29T23:51:45.355Z,11.70
2022-08-29T23:54:14.819Z,12.39
2022-08-29T23:56:46.049Z,11.86
2022-08-29T23:59:35.235Z,12.41
